createdAt,value
2018-12-01T00:01:19.838Z,10.43
2018-12-01T00:03:47.906Z,11.28
2018-12-01T00:06:15.991Z,9.93
2018-12-01T00:08:44.066Z,11.73
2018-12-01T00:11:12.138Z,11.15
2018-12-01T00:13:40.218Z,10.82
2018-12-01T00:16:08.281Z,9.60
2018-12-01T00:18:36.369Z,11.28
2018-12-01T00:21:04.442Z,10.53
2018-12-01T00:23:32.524Z,9.38
2018-12-01T00:26:00.602Z,11.85
2018-12-01T00:28:28.686Z,10.08
2018-12-01T00:30:56.762Z,10.78
2018-12-01T00:33:24.841Z,10.95
2018-12-01T00:35:52.906Z,9.90
2018-12-01T00:38:20.976Z,11.80
2018-12-01T00:40:49.042Z,9.50
2018-12-01T00:43:17.114Z,9.25
2018-12-01T00:45:45.178Z,9.45
2018-12-01T00:48:13.249Z,11.55
2018-12-01T00:50:41.322Z,11.75
2018-12-01T00:53:09.390Z,11.08
2018-12-01T00:55:37.476Z,11.90
2018-12-01T00:58:05.658Z,10.13
2018-12-01T01:00:33.727Z,9.85
2018-12-01T01:03:01.797Z,9.53
2018-12-01T01:05:31.346Z,8.95
2018-12-01T01:08:00.306Z,9.45
2018-12-01T01:10:31.545Z,9.33
2018-12-01T01:12:59.599Z,8.50
2018-12-01T01:15:27.654Z,9.23
2018-12-01T01:17:55.699Z,9.55
2018-12-01T01:20:24.307Z,9.23
2018-12-01T01:22:52.531Z,9.40
2018-12-01T01:25:20.623Z,8.93
2018-12-01T01:27:48.669Z,10.18
2018-12-01T01:30:20.342Z,8.50
2018-12-01T01:32:48.914Z,9.70
2018-12-01T01:35:16.970Z,8.73
2018-12-01T01:37:45.029Z,8.60
2018-12-01T01:40:18.271Z,6.83
2018-12-01T01:42:46.353Z,7.92
2018-12-01T01:45:18.462Z,6.35
2018-12-01T01:47:46.644Z,7.62
2018-12-01T01:50:16.877Z,9.10
2018-12-01T01:52:44.930Z,9.30
2018-12-01T01:55:12.979Z,8.05
2018-12-01T01:57:41.200Z,6.35
2018-12-01T02:00:13.786Z,6.83
2018-12-01T02:02:43.139Z,7.33
2018-12-01T02:05:11.203Z,7.55
2018-12-01T02:07:39.258Z,6.97
2018-12-01T02:10:08.118Z,6.55
2018-12-01T02:12:36.169Z,6.53
2018-12-01T02:15:05.266Z,8.33
2018-12-01T02:17:33.316Z,7.90
2018-12-01T02:20:01.383Z,6.22
2018-12-01T02:22:29.426Z,8.43
2018-12-01T02:24:57.498Z,6.30
2018-12-01T02:27:25.549Z,7.53
2018-12-01T02:29:53.594Z,6.87
2018-12-01T02:32:21.647Z,6.58
2018-12-01T02:34:49.704Z,7.55
2018-12-01T02:37:17.751Z,8.05
2018-12-01T02:39:45.799Z,7.85
2018-12-01T02:42:13.858Z,7.90
2018-12-01T02:45:06.554Z,7.80
2018-12-01T02:47:34.623Z,7.85
2018-12-01T02:50:03.275Z,9.63
2018-12-01T02:52:31.327Z,7.17
2018-12-01T02:54:59.376Z,6.92
2018-12-01T02:57:27.434Z,9.30
2018-12-01T02:59:55.499Z,6.28
2018-12-01T03:02:25.102Z,7.47
2018-12-01T03:04:53.767Z,7.47
2018-12-01T03:07:21.970Z,7.53
2018-12-01T03:09:50.034Z,6.90
2018-12-01T03:12:19.087Z,6.33
2018-12-01T03:14:47.126Z,7.53
2018-12-01T03:17:15.166Z,4.47
2018-12-01T03:19:43.213Z,5.97
2018-12-01T03:22:11.264Z,8.08
2018-12-01T03:24:39.290Z,7.60
2018-12-01T03:27:07.326Z,6.87
2018-12-01T03:29:35.368Z,7.05
2018-12-01T03:32:03.415Z,7.55
2018-12-01T03:34:31.462Z,8.23
2018-12-01T03:36:59.514Z,10.80
2018-12-01T03:39:27.550Z,7.65
2018-12-01T03:41:55.594Z,8.68
2018-12-01T03:44:23.638Z,10.30
2018-12-01T03:46:51.678Z,11.20
2018-12-01T03:49:19.740Z,9.18
2018-12-01T03:51:47.777Z,12.03
2018-12-01T03:54:15.830Z,10.00
2018-12-01T03:56:43.875Z,11.95
2018-12-01T03:59:11.922Z,12.47
2018-12-01T04:01:39.959Z,9.55
2018-12-01T04:04:08.002Z,11.83
2018-12-01T04:06:36.050Z,9.18
2018-12-01T04:09:12.633Z,9.98
2018-12-01T04:11:41.849Z,8.40
2018-12-01T04:14:10.042Z,12.20
2018-12-01T04:16:38.218Z,9.78
2018-12-01T04:19:06.270Z,9.60
2018-12-01T04:21:34.309Z,6.70
2018-12-01T04:24:02.353Z,9.45
2018-12-01T04:26:30.390Z,8.38
2018-12-01T04:28:58.433Z,7.75
2018-12-01T04:31:26.469Z,6.85
2018-12-01T04:33:54.516Z,7.80
2018-12-01T04:36:22.550Z,8.40
2018-12-01T04:38:50.593Z,7.70
2018-12-01T04:41:18.629Z,7.55
2018-12-01T04:43:46.768Z,8.43
2018-12-01T04:46:14.790Z,8.05
2018-12-01T04:48:42.831Z,7.97
2018-12-01T04:51:10.870Z,11.22
2018-12-01T04:53:38.905Z,7.53
2018-12-01T04:56:06.953Z,11.10
2018-12-01T04:58:36.021Z,8.20
2018-12-01T05:01:04.070Z,7.15
2018-12-01T05:03:32.109Z,7.15
2018-12-01T05:06:00.155Z,8.78
2018-12-01T05:08:28.210Z,8.33
2018-12-01T05:10:56.262Z,8.73
2018-12-01T05:13:24.304Z,11.10
2018-12-01T05:15:52.382Z,9.53
2018-12-01T05:18:20.402Z,10.10
2018-12-01T05:20:48.506Z,8.28
2018-12-01T05:23:16.552Z,6.85
2018-12-01T05:25:44.610Z,9.68
2018-12-01T05:28:12.693Z,8.65
2018-12-01T05:30:40.731Z,9.10
2018-12-01T05:33:08.766Z,7.12
2018-12-01T05:35:36.818Z,6.78
2018-12-01T05:38:05.054Z,6.67
2018-12-01T05:40:33.126Z,7.03
2018-12-01T05:43:01.174Z,6.72
2018-12-01T05:45:29.211Z,6.97
2018-12-01T05:47:57.249Z,7.00
2018-12-01T05:50:26.018Z,6.65
2018-12-01T05:52:54.974Z,5.75
2018-12-01T05:55:23.021Z,6.30
2018-12-01T05:57:51.075Z,7.37
2018-12-01T06:00:19.274Z,6.40
2018-12-01T06:02:47.313Z,5.50
2018-12-01T06:05:15.351Z,6.12
2018-12-01T06:07:43.780Z,7.65
2018-12-01T06:10:25.387Z,8.43
2018-12-01T06:12:53.361Z,6.33
2018-12-01T06:15:21.725Z,5.37
2018-12-01T06:17:49.775Z,6.37
2018-12-01T06:20:20.062Z,5.60
2018-12-01T06:22:48.106Z,6.15
2018-12-01T06:25:17.257Z,5.90
2018-12-01T06:27:45.342Z,7.12
2018-12-01T06:30:16.302Z,7.25
2018-12-01T06:32:44.690Z,6.55
2018-12-01T06:35:12.723Z,6.83
2018-12-01T06:37:40.912Z,7.62
2018-12-01T06:40:12.231Z,7.35
2018-12-01T06:42:40.266Z,6.10
2018-12-01T06:45:10.361Z,6.62
2018-12-01T06:47:38.534Z,8.45
2018-12-01T06:50:09.647Z,8.55
2018-12-01T06:52:37.745Z,7.85
2018-12-01T06:55:07.078Z,8.13
2018-12-01T06:57:35.126Z,7.08
2018-12-01T07:00:03.185Z,7.83
2018-12-01T07:02:31.266Z,6.90
2018-12-01T07:04:59.302Z,10.68
2018-12-01T07:07:27.362Z,10.38
2018-12-01T07:09:55.418Z,7.67
2018-12-01T07:12:23.454Z,8.73
2018-12-01T07:14:51.522Z,9.15
2018-12-01T07:17:19.585Z,11.55
2018-12-01T07:19:47.634Z,8.75
2018-12-01T07:22:15.674Z,11.20
2018-12-01T07:24:43.722Z,11.05
2018-12-01T07:27:11.762Z,10.00
2018-12-01T07:29:39.806Z,10.63
2018-12-01T07:32:07.838Z,13.15
2018-12-01T07:34:35.882Z,12.15
2018-12-01T07:37:03.914Z,13.85
2018-12-01T07:39:31.994Z,10.85
2018-12-01T07:42:00.046Z,12.25
2018-12-01T07:44:28.094Z,12.28
2018-12-01T07:46:56.130Z,11.10
2018-12-01T07:49:24.174Z,9.58
2018-12-01T07:51:52.225Z,12.70
2018-12-01T07:54:20.352Z,11.35
2018-12-01T07:56:48.378Z,13.98
2018-12-01T07:59:16.434Z,10.08
2018-12-01T08:01:44.490Z,10.88
2018-12-01T08:04:12.542Z,11.70
2018-12-01T08:06:40.586Z,13.10
2018-12-01T08:09:08.629Z,10.85
2018-12-01T08:11:36.662Z,9.73
2018-12-01T08:14:05.023Z,12.68
2018-12-01T08:16:33.074Z,12.23
2018-12-01T08:19:01.118Z,11.35
2018-12-01T08:21:29.154Z,10.93
2018-12-01T08:23:57.203Z,10.32
2018-12-01T08:26:25.281Z,11.22
2018-12-01T08:28:53.335Z,11.08
2018-12-01T08:31:21.370Z,10.13
2018-12-01T08:33:49.426Z,9.73
2018-12-01T08:36:17.462Z,11.28
2018-12-01T08:38:45.509Z,13.13
2018-12-01T08:41:13.554Z,9.78
2018-12-01T08:43:41.592Z,10.75
2018-12-01T08:46:09.643Z,13.25
2018-12-01T08:48:37.686Z,10.03
2018-12-01T08:51:05.988Z,10.78
2018-12-01T08:53:34.030Z,10.15
2018-12-01T08:56:02.082Z,12.53
2018-12-01T08:58:30.130Z,12.93
2018-12-01T09:00:58.190Z,8.65
2018-12-01T09:03:26.230Z,9.55
2018-12-01T09:05:54.290Z,11.83
2018-12-01T09:08:22.346Z,10.90
2018-12-01T09:10:50.385Z,10.68
2018-12-01T09:13:18.426Z,10.55
2018-12-01T09:15:46.474Z,9.30
2018-12-01T09:18:14.514Z,8.60
2018-12-01T09:20:42.549Z,9.70
2018-12-01T09:23:10.605Z,10.28
2018-12-01T09:25:38.651Z,8.85
2018-12-01T09:28:07.825Z,8.33
2018-12-01T09:30:37.245Z,8.90
2018-12-01T09:33:05.575Z,7.75
2018-12-01T09:35:33.639Z,8.40
2018-12-01T09:38:01.675Z,7.53
2018-12-01T09:40:29.718Z,9.35
2018-12-01T09:42:57.761Z,8.78
2018-12-01T09:45:26.116Z,8.35
2018-12-01T09:47:55.271Z,7.80
2018-12-01T09:50:23.322Z,10.00
2018-12-01T09:52:53.382Z,8.65
2018-12-01T09:55:23.509Z,6.80
2018-12-01T09:57:52.087Z,7.92
2018-12-01T10:00:22.034Z,7.03
2018-12-01T10:02:50.079Z,7.03
2018-12-01T10:05:19.042Z,7.35
2018-12-01T10:07:47.199Z,8.08
2018-12-01T10:10:17.254Z,8.53
2018-12-01T10:12:46.162Z,8.25
2018-12-01T10:15:18.123Z,8.40
2018-12-01T10:17:46.163Z,7.97
2018-12-01T10:20:15.625Z,8.10
2018-12-01T10:22:43.671Z,9.43
2018-12-01T10:25:13.026Z,7.95
2018-12-01T10:27:41.081Z,8.88
2018-12-01T10:30:16.328Z,9.88
2018-12-01T10:32:44.370Z,7.67
2018-12-01T10:35:14.422Z,8.45
2018-12-01T10:37:42.670Z,7.53
2018-12-01T10:40:11.769Z,7.62
2018-12-01T10:42:39.849Z,8.03
2018-12-01T10:45:16.994Z,8.78
2018-12-01T10:47:45.450Z,7.65
2018-12-01T10:50:18.658Z,7.75
2018-12-01T10:52:47.462Z,7.00
2018-12-01T10:55:24.706Z,6.62
2018-12-01T10:57:54.178Z,8.10
2018-12-01T11:00:27.534Z,8.30
2018-12-01T11:03:00.706Z,6.10
2018-12-01T11:05:29.020Z,7.78
2018-12-01T11:07:57.095Z,7.37
2018-12-01T11:10:25.154Z,6.60
2018-12-01T11:12:53.242Z,7.28
2018-12-01T11:15:21.277Z,6.95
2018-12-01T11:17:49.318Z,5.72
2018-12-01T11:20:17.366Z,5.53
2018-12-01T11:22:45.411Z,5.65
2018-12-01T11:25:13.458Z,5.35
2018-12-01T11:27:41.491Z,6.10
2018-12-01T11:30:14.652Z,6.00
2018-12-01T11:32:42.686Z,8.55
2018-12-01T11:35:10.760Z,4.80
2018-12-01T11:37:38.806Z,5.00
2018-12-01T11:40:12.926Z,4.97
2018-12-01T11:42:40.962Z,5.90
2018-12-01T11:45:12.158Z,5.95
2018-12-01T11:47:40.215Z,5.00
2018-12-01T11:50:13.451Z,5.40
2018-12-01T11:52:41.497Z,3.87
2018-12-01T11:55:13.929Z,6.05
2018-12-01T11:57:41.962Z,6.03
2018-12-01T12:00:12.454Z,4.92
2018-12-01T12:02:40.506Z,6.50
2018-12-01T12:05:09.645Z,6.45
2018-12-01T12:07:49.166Z,7.05
2018-12-01T12:10:17.300Z,5.53
2018-12-01T12:12:45.413Z,5.60
2018-12-01T12:15:13.505Z,6.37
2018-12-01T12:17:42.554Z,5.05
2018-12-01T12:20:10.958Z,6.47
2018-12-01T12:22:38.999Z,5.22
2018-12-01T12:25:08.554Z,5.28
2018-12-01T12:27:36.587Z,4.50
2018-12-01T12:30:08.830Z,4.60
2018-12-01T12:32:36.883Z,5.12
2018-12-01T12:35:05.210Z,4.53
2018-12-01T12:37:33.246Z,4.33
2018-12-01T12:40:01.289Z,4.45
2018-12-01T12:42:29.322Z,4.58
2018-12-01T12:44:57.366Z,3.85
2018-12-01T12:47:25.415Z,4.85
2018-12-01T12:49:53.447Z,3.95
2018-12-01T12:52:21.500Z,4.42
2018-12-01T12:54:49.528Z,4.97
2018-12-01T12:57:17.657Z,4.40
2018-12-01T12:59:45.698Z,5.10
2018-12-01T13:02:13.742Z,4.80
2018-12-01T13:04:41.775Z,4.08
2018-12-01T13:07:09.829Z,4.25
2018-12-01T13:09:37.866Z,5.65
2018-12-01T13:12:06.510Z,4.28
2018-12-01T13:14:34.550Z,3.72
2018-12-01T13:17:02.598Z,4.28
2018-12-01T13:19:30.637Z,3.10
2018-12-01T13:21:58.686Z,3.60
2018-12-01T13:24:26.722Z,4.00
2018-12-01T13:26:54.777Z,3.47
2018-12-01T13:29:22.818Z,3.25
2018-12-01T13:31:54.528Z,3.05
2018-12-01T13:34:18.911Z,3.15
2018-12-01T13:36:46.963Z,2.40
2018-12-01T13:39:15.109Z,2.85
2018-12-01T13:41:43.162Z,3.60
2018-12-01T13:44:11.206Z,3.67
2018-12-01T13:46:39.263Z,2.70
2018-12-01T13:49:07.301Z,3.42
2018-12-01T13:51:35.351Z,3.37
2018-12-01T13:54:03.399Z,3.00
2018-12-01T13:56:31.450Z,2.75
2018-12-01T13:58:59.533Z,2.75
2018-12-01T14:01:27.530Z,2.62
2018-12-01T14:03:55.582Z,2.77
2018-12-01T14:06:23.650Z,2.37
2018-12-01T14:08:51.686Z,2.80
2018-12-01T14:11:19.723Z,2.42
2018-12-01T14:13:47.770Z,2.42
2018-12-01T14:16:15.814Z,1.92
2018-12-01T14:18:43.858Z,2.80
2018-12-01T14:21:11.896Z,2.72
2018-12-01T14:23:39.951Z,2.30
2018-12-01T14:26:07.993Z,2.30
2018-12-01T14:28:36.042Z,2.50
2018-12-01T14:31:04.090Z,2.87
2018-12-01T14:33:32.144Z,2.90
2018-12-01T14:36:00.178Z,2.55
2018-12-01T14:38:28.338Z,3.83
2018-12-01T14:40:56.376Z,4.15
2018-12-01T14:43:24.737Z,3.42
2018-12-01T14:45:52.761Z,3.62
2018-12-01T14:48:20.814Z,3.90
2018-12-01T14:50:49.076Z,3.58
2018-12-01T14:53:17.652Z,3.72
2018-12-01T14:55:45.706Z,4.05
2018-12-01T14:58:13.774Z,3.15
2018-12-01T15:00:41.809Z,4.45
2018-12-01T15:03:09.853Z,3.02
2018-12-01T15:05:38.870Z,2.67
2018-12-01T15:08:07.258Z,3.02
2018-12-01T15:10:35.455Z,3.30
2018-12-01T15:13:03.502Z,3.22
2018-12-01T15:15:31.539Z,3.20
2018-12-01T15:17:59.590Z,3.27
2018-12-01T15:20:27.651Z,3.37
2018-12-01T15:22:57.709Z,2.60
2018-12-01T15:25:27.582Z,2.83
2018-12-01T15:27:55.690Z,3.02
2018-12-01T15:30:25.682Z,3.10
2018-12-01T15:33:15.769Z,3.20
2018-12-01T15:35:44.465Z,3.30
2018-12-01T15:38:12.561Z,2.65
2018-12-01T15:40:42.173Z,3.05
2018-12-01T15:43:10.213Z,3.40
2018-12-01T15:45:38.290Z,2.72
2018-12-01T15:48:06.937Z,3.42
2018-12-01T15:50:34.982Z,3.25
2018-12-01T15:53:03.208Z,2.83
2018-12-01T15:55:31.263Z,2.70
2018-12-01T15:57:59.290Z,2.90
2018-12-01T16:00:27.909Z,2.90
2018-12-01T16:02:55.955Z,3.87
2018-12-01T16:05:24.446Z,3.75
2018-12-01T16:07:54.590Z,2.75
2018-12-01T16:10:23.182Z,3.12
2018-12-01T16:13:23.615Z,2.98
2018-12-01T16:15:55.706Z,3.52
2018-12-01T16:18:23.742Z,3.10
2018-12-01T16:20:51.778Z,3.15
2018-12-01T16:23:19.821Z,2.58
2018-12-01T16:25:47.845Z,2.75
2018-12-01T16:28:15.918Z,3.60
2018-12-01T16:30:45.031Z,4.15
2018-12-01T16:33:15.360Z,3.62
2018-12-01T16:35:43.394Z,3.17
2018-12-01T16:38:12.882Z,3.87
2018-12-01T16:40:47.956Z,3.87
2018-12-01T16:43:16.205Z,3.30
2018-12-01T16:45:46.566Z,3.27
2018-12-01T16:48:14.600Z,7.42
2018-12-01T16:50:42.666Z,7.30
2018-12-01T16:53:12.333Z,8.45
2018-12-01T16:55:40.479Z,9.43
2018-12-01T16:58:08.505Z,10.82
2018-12-01T17:00:36.557Z,12.20
2018-12-01T17:03:04.618Z,11.93
2018-12-01T17:05:34.300Z,11.93
2018-12-01T17:08:02.349Z,13.50
2018-12-01T17:10:30.386Z,13.18
2018-12-01T17:12:58.465Z,12.93
2018-12-01T17:15:26.498Z,13.43
2018-12-01T17:17:54.550Z,13.65
2018-12-01T17:20:22.590Z,11.83
2018-12-01T17:22:54.186Z,13.55
2018-12-01T17:25:22.210Z,13.88
2018-12-01T17:27:51.263Z,14.50
2018-12-01T17:30:21.286Z,13.45
2018-12-01T17:32:49.685Z,12.50
2018-12-01T17:35:18.805Z,12.37
2018-12-01T17:37:50.055Z,10.28
2018-12-01T17:40:27.487Z,9.85
2018-12-01T17:42:56.882Z,8.80
2018-12-01T17:45:24.910Z,6.97
2018-12-01T17:47:52.947Z,6.87
2018-12-01T17:50:20.982Z,5.80
2018-12-01T17:52:51.670Z,4.20
2018-12-01T17:55:19.751Z,3.80
2018-12-01T17:57:48.377Z,3.25
2018-12-01T18:00:21.748Z,4.33
2018-12-01T18:02:50.975Z,4.75
2018-12-01T18:05:20.992Z,4.58
2018-12-01T18:07:49.037Z,4.05
2018-12-01T18:10:17.078Z,4.08
2018-12-01T18:12:45.137Z,3.98
2018-12-01T18:15:14.454Z,4.10
2018-12-01T18:17:42.493Z,4.90
2018-12-01T18:20:16.690Z,5.03
2018-12-01T18:22:45.999Z,5.72
2018-12-01T18:25:14.070Z,4.70
2018-12-01T18:27:42.117Z,4.50
2018-12-01T18:30:12.596Z,3.87
2018-12-01T18:32:40.633Z,3.90
2018-12-01T18:35:08.826Z,4.60
2018-12-01T18:37:36.842Z,3.72
2018-12-01T18:40:13.754Z,4.25
2018-12-01T18:42:41.893Z,4.30
2018-12-01T18:45:11.666Z,4.53
2018-12-01T18:47:39.702Z,3.45
2018-12-01T18:50:13.570Z,4.00
2018-12-01T18:52:42.258Z,4.75
2018-12-01T18:55:12.910Z,4.97
2018-12-01T18:57:41.101Z,4.70
2018-12-01T19:00:14.722Z,3.55
2018-12-01T19:02:43.098Z,4.03
2018-12-01T19:05:11.130Z,3.90
2018-12-01T19:07:39.174Z,4.40
2018-12-01T19:10:12.470Z,4.75
2018-12-01T19:12:40.550Z,4.83
2018-12-01T19:15:10.083Z,3.60
2018-12-01T19:17:38.223Z,3.35
2018-12-01T19:20:10.246Z,4.80
2018-12-01T19:22:38.302Z,4.42
2018-12-01T19:25:10.606Z,4.40
2018-12-01T19:27:38.646Z,4.62
2018-12-01T19:30:09.858Z,4.55
2018-12-01T19:32:37.900Z,4.58
2018-12-01T19:35:08.277Z,4.80
2018-12-01T19:37:36.317Z,4.80
2018-12-01T19:40:10.603Z,4.55
2018-12-01T19:42:38.813Z,5.65
2018-12-01T19:45:07.074Z,4.08
2018-12-01T19:47:35.111Z,5.20
2018-12-01T19:50:03.646Z,3.98
2018-12-01T19:52:31.685Z,4.67
2018-12-01T19:54:59.739Z,3.95
2018-12-01T19:57:27.818Z,4.40
2018-12-01T19:59:55.902Z,4.30
2018-12-01T20:02:23.926Z,4.58
2018-12-01T20:04:51.961Z,4.72
2018-12-01T20:07:20.018Z,5.03
2018-12-01T20:09:48.129Z,4.00
2018-12-01T20:12:16.219Z,4.10
2018-12-01T20:14:44.243Z,3.98
2018-12-01T20:17:12.283Z,5.53
2018-12-01T20:19:40.410Z,4.87
2018-12-01T20:22:08.450Z,3.45
2018-12-01T20:24:36.486Z,4.42
2018-12-01T20:27:05.023Z,3.87
2018-12-01T20:29:33.066Z,3.47
2018-12-01T20:32:01.105Z,3.30
2018-12-01T20:34:29.134Z,4.22
2018-12-01T20:37:01.871Z,3.37
2018-12-01T20:39:34.154Z,2.87
2018-12-01T20:42:02.246Z,4.62
2018-12-01T20:44:30.276Z,2.92
2018-12-01T20:46:58.310Z,2.62
2018-12-01T20:49:26.342Z,3.12
2018-12-01T20:51:54.399Z,2.95
2018-12-01T20:54:31.430Z,3.40
2018-12-01T20:57:04.465Z,2.95
2018-12-01T20:59:32.502Z,3.72
2018-12-01T21:02:00.623Z,2.87
2018-12-01T21:04:28.658Z,2.92
2018-12-01T21:06:56.858Z,3.12
2018-12-01T21:09:24.873Z,3.52
2018-12-01T21:11:52.977Z,3.20
2018-12-01T21:14:21.002Z,2.90
2018-12-01T21:16:49.026Z,2.83
2018-12-01T21:19:17.049Z,3.27
2018-12-01T21:21:45.263Z,3.45
2018-12-01T21:24:13.278Z,2.30
2018-12-01T21:26:41.467Z,2.65
2018-12-01T21:29:09.482Z,3.00
2018-12-01T21:31:37.637Z,2.80
2018-12-01T21:34:06.451Z,2.58
2018-12-01T21:36:34.458Z,3.92
2018-12-01T21:39:02.546Z,3.80
2018-12-01T21:41:30.558Z,2.95
2018-12-01T21:43:58.714Z,3.20
2018-12-01T21:46:26.735Z,2.70
2018-12-01T21:48:54.918Z,3.50
2018-12-01T21:51:22.930Z,2.90
2018-12-01T21:53:51.085Z,2.80
2018-12-01T21:56:19.102Z,2.67
2018-12-01T21:58:47.251Z,2.40
2018-12-01T22:01:15.268Z,2.83
2018-12-01T22:03:43.454Z,2.22
2018-12-01T22:06:11.504Z,2.62
2018-12-01T22:08:39.686Z,2.27
2018-12-01T22:11:08.971Z,2.00
2018-12-01T22:13:36.654Z,2.27
2018-12-01T22:16:05.371Z,2.02
2018-12-01T22:18:33.392Z,2.33
2018-12-01T22:21:01.416Z,1.67
2018-12-01T22:23:29.430Z,2.60
2018-12-01T22:25:57.454Z,1.92
2018-12-01T22:28:25.474Z,1.50
2018-12-01T22:30:53.655Z,1.80
2018-12-01T22:33:23.245Z,3.05
2018-12-01T22:35:51.272Z,3.02
2018-12-01T22:38:19.291Z,2.00
2018-12-01T22:40:47.555Z,2.08
2018-12-01T22:43:15.562Z,3.40
2018-12-01T22:45:43.578Z,2.08
2018-12-01T22:48:13.286Z,1.80
2018-12-01T22:50:42.822Z,2.05
2018-12-01T22:53:10.845Z,1.90
2018-12-01T22:55:39.897Z,2.08
2018-12-01T22:58:10.030Z,2.40
2018-12-01T23:00:41.740Z,2.58
2018-12-01T23:03:10.498Z,2.35
2018-12-01T23:05:38.562Z,2.40
2018-12-01T23:08:11.278Z,2.62
2018-12-01T23:10:39.304Z,2.85
2018-12-01T23:13:07.480Z,2.50
2018-12-01T23:15:35.509Z,2.15
2018-12-01T23:18:04.542Z,2.40
2018-12-01T23:20:32.562Z,2.10
2018-12-01T23:23:00.585Z,3.10
2018-12-01T23:25:28.607Z,2.75
2018-12-01T23:27:56.617Z,2.40
2018-12-01T23:30:25.915Z,1.90
2018-12-01T23:32:57.040Z,2.60
2018-12-01T23:35:25.054Z,2.30
2018-12-01T23:37:53.066Z,2.22
2018-12-01T23:40:21.085Z,2.10
2018-12-01T23:42:49.098Z,2.27
2018-12-01T23:45:19.210Z,2.17
2018-12-01T23:47:47.604Z,2.17
2018-12-01T23:50:24.451Z,2.90
2018-12-01T23:52:53.698Z,2.92
2018-12-01T23:55:21.721Z,2.20
2018-12-01T23:57:49.733Z,2.60
